sensor_id;sensor_type;location;lat;lon;timestamp;P1;durP1;ratioP1;P2;durP2;ratioP2
42006;SDS011;27696;42.704;23.304;2023-04-15T00:01:20;14.30;;;8.20;;
42006;SDS011;27696;42.704;23.304;2023-04-15T00:03:46;13.13;;;7.68;;
42006;SDS011;27696;42.704;23.304;2023-04-15T00:06:12;12.93;;;8.38;;
42006;SDS011;27696;42.704;23.304;2023-04-15T00:08:38;15.60;;;9.13;;
42006;SDS011;27696;42.704;23.304;2023-04-15T00:11:03;13.57;;;8.25;;
42006;SDS011;27696;42.704;23.304;2023-04-15T00:13:30;11.85;;;7.38;;
42006;SDS011;27696;42.704;23.304;2023-04-15T00:15:56;11.82;;;8.43;;
42006;SDS011;27696;42.704;23.304;2023-04-15T00:18:22;11.52;;;8.48;;
42006;SDS011;27696;42.704;23.304;2023-04-15T00:20:48;13.82;;;9.10;;
42006;SDS011;27696;42.704;23.304;2023-04-15T00:23:14;15.07;;;8.60;;
42006;SDS011;27696;42.704;23.304;2023-04-15T00:25:39;18.60;;;8.77;;
42006;SDS011;27696;42.704;23.304;2023-04-15T00:28:05;12.95;;;8.13;;
42006;SDS011;27696;42.704;23.304;2023-04-15T00:30:30;11.45;;;8.68;;
42006;SDS011;27696;42.704;23.304;2023-04-15T00:32:56;12.40;;;8.60;;
42006;SDS011;27696;42.704;23.304;2023-04-15T00:35:21;14.57;;;8.15;;
42006;SDS011;27696;42.704;23.304;2023-04-15T00:37:48;13.48;;;8.38;;
42006;SDS011;27696;42.704;23.304;2023-04-15T00:40:13;14.80;;;9.57;;
42006;SDS011;27696;42.704;23.304;2023-04-15T00:42:43;13.77;;;10.05;;
42006;SDS011;27696;42.704;23.304;2023-04-15T00:45:09;14.40;;;9.63;;
42006;SDS011;27696;42.704;23.304;2023-04-15T00:47:35;11.35;;;8.50;;
42006;SDS011;27696;42.704;23.304;2023-04-15T00:50:02;16.17;;;10.48;;
42006;SDS011;27696;42.704;23.304;2023-04-15T00:52:27;14.65;;;9.40;;
42006;SDS011;27696;42.704;23.304;2023-04-15T00:54:53;18.42;;;10.45;;
42006;SDS011;27696;42.704;23.304;2023-04-15T00:57:19;12.60;;;9.50;;
42006;SDS011;27696;42.704;23.304;2023-04-15T00:59:45;16.42;;;10.68;;
42006;SDS011;27696;42.704;23.304;2023-04-15T01:02:11;15.40;;;9.40;;
42006;SDS011;27696;42.704;23.304;2023-04-15T01:04:36;16.52;;;9.70;;
42006;SDS011;27696;42.704;23.304;2023-04-15T01:07:02;15.95;;;9.95;;
42006;SDS011;27696;42.704;23.304;2023-04-15T01:09:27;14.07;;;9.98;;
42006;SDS011;27696;42.704;23.304;2023-04-15T01:11:53;17.15;;;10.10;;
42006;SDS011;27696;42.704;23.304;2023-04-15T01:14:18;19.88;;;10.65;;
42006;SDS011;27696;42.704;23.304;2023-04-15T01:16:44;15.77;;;10.55;;
42006;SDS011;27696;42.704;23.304;2023-04-15T01:19:10;14.50;;;10.35;;
42006;SDS011;27696;42.704;23.304;2023-04-15T01:21:36;16.27;;;10.02;;
42006;SDS011;27696;42.704;23.304;2023-04-15T01:24:09;11.77;;;8.93;;
42006;SDS011;27696;42.704;23.304;2023-04-15T01:26:38;15.40;;;10.23;;
42006;SDS011;27696;42.704;23.304;2023-04-15T01:29:04;16.17;;;9.38;;
42006;SDS011;27696;42.704;23.304;2023-04-15T01:31:31;16.02;;;10.05;;
42006;SDS011;27696;42.704;23.304;2023-04-15T01:33:56;12.63;;;10.23;;
42006;SDS011;27696;42.704;23.304;2023-04-15T01:36:22;16.35;;;10.50;;
42006;SDS011;27696;42.704;23.304;2023-04-15T01:38:48;15.55;;;10.15;;
42006;SDS011;27696;42.704;23.304;2023-04-15T01:41:13;17.38;;;10.30;;
42006;SDS011;27696;42.704;23.304;2023-04-15T01:43:39;16.88;;;11.40;;
42006;SDS011;27696;42.704;23.304;2023-04-15T01:46:04;16.05;;;10.73;;
42006;SDS011;27696;42.704;23.304;2023-04-15T01:48:30;17.35;;;10.82;;
42006;SDS011;27696;42.704;23.304;2023-04-15T01:50:56;16.45;;;11.05;;
42006;SDS011;27696;42.704;23.304;2023-04-15T01:53:22;13.93;;;10.27;;
42006;SDS011;27696;42.704;23.304;2023-04-15T01:55:49;17.23;;;10.68;;
42006;SDS011;27696;42.704;23.304;2023-04-15T01:58:15;17.13;;;11.02;;
42006;SDS011;27696;42.704;23.304;2023-04-15T02:00:41;16.73;;;10.27;;
42006;SDS011;27696;42.704;23.304;2023-04-15T02:03:06;13.23;;;9.77;;
42006;SDS011;27696;42.704;23.304;2023-04-15T02:05:32;15.95;;;10.77;;
42006;SDS011;27696;42.704;23.304;2023-04-15T02:07:57;16.52;;;9.82;;
42006;SDS011;27696;42.704;23.304;2023-04-15T02:10:23;12.13;;;9.80;;
42006;SDS011;27696;42.704;23.304;2023-04-15T02:12:48;14.38;;;9.98;;
42006;SDS011;27696;42.704;23.304;2023-04-15T02:15:14;20.90;;;10.23;;
42006;SDS011;27696;42.704;23.304;2023-04-15T02:17:39;14.73;;;10.38;;
42006;SDS011;27696;42.704;23.304;2023-04-15T02:20:05;12.73;;;9.82;;
42006;SDS011;27696;42.704;23.304;2023-04-15T02:22:32;14.63;;;10.05;;
42006;SDS011;27696;42.704;23.304;2023-04-15T02:24:58;14.27;;;9.45;;
42006;SDS011;27696;42.704;23.304;2023-04-15T02:27:23;10.07;;;8.48;;
42006;SDS011;27696;42.704;23.304;2023-04-15T02:29:49;11.35;;;8.85;;
42006;SDS011;27696;42.704;23.304;2023-04-15T02:32:17;12.82;;;8.98;;
42006;SDS011;27696;42.704;23.304;2023-04-15T02:34:42;12.48;;;8.98;;
42006;SDS011;27696;42.704;23.304;2023-04-15T02:37:08;15.25;;;9.20;;
42006;SDS011;27696;42.704;23.304;2023-04-15T02:39:35;15.98;;;10.45;;
42006;SDS011;27696;42.704;23.304;2023-04-15T02:42:00;13.70;;;9.30;;
42006;SDS011;27696;42.704;23.304;2023-04-15T02:44:26;12.52;;;9.73;;
42006;SDS011;27696;42.704;23.304;2023-04-15T02:46:52;15.30;;;10.13;;
42006;SDS011;27696;42.704;23.304;2023-04-15T02:49:22;14.98;;;8.90;;
42006;SDS011;27696;42.704;23.304;2023-04-15T02:51:47;14.55;;;9.20;;
42006;SDS011;27696;42.704;23.304;2023-04-15T02:54:17;13.73;;;9.25;;
42006;SDS011;27696;42.704;23.304;2023-04-15T02:56:43;12.55;;;9.30;;
42006;SDS011;27696;42.704;23.304;2023-04-15T02:59:08;12.85;;;9.43;;
42006;SDS011;27696;42.704;23.304;2023-04-15T03:01:33;11.25;;;8.50;;
42006;SDS011;27696;42.704;23.304;2023-04-15T03:03:59;14.25;;;9.13;;
42006;SDS011;27696;42.704;23.304;2023-04-15T03:06:24;16.08;;;9.10;;
42006;SDS011;27696;42.704;23.304;2023-04-15T03:08:50;12.15;;;8.95;;
42006;SDS011;27696;42.704;23.304;2023-04-15T03:11:15;12.40;;;9.40;;
42006;SDS011;27696;42.704;23.304;2023-04-15T03:13:41;13.15;;;9.80;;
42006;SDS011;27696;42.704;23.304;2023-04-15T03:16:07;13.70;;;9.27;;
42006;SDS011;27696;42.704;23.304;2023-04-15T03:18:33;11.80;;;9.25;;
42006;SDS011;27696;42.704;23.304;2023-04-15T03:20:59;12.45;;;9.55;;
42006;SDS011;27696;42.704;23.304;2023-04-15T03:23:24;11.43;;;9.20;;
42006;SDS011;27696;42.704;23.304;2023-04-15T03:25:50;16.33;;;10.07;;
42006;SDS011;27696;42.704;23.304;2023-04-15T03:28:15;13.68;;;9.63;;
42006;SDS011;27696;42.704;23.304;2023-04-15T03:30:41;13.95;;;10.80;;
42006;SDS011;27696;42.704;23.304;2023-04-15T03:33:06;13.80;;;9.77;;
42006;SDS011;27696;42.704;23.304;2023-04-15T03:35:32;13.93;;;9.63;;
42006;SDS011;27696;42.704;23.304;2023-04-15T03:37:58;14.93;;;9.68;;
42006;SDS011;27696;42.704;23.304;2023-04-15T03:40:23;15.43;;;9.43;;
42006;SDS011;27696;42.704;23.304;2023-04-15T03:42:49;12.40;;;9.68;;
42006;SDS011;27696;42.704;23.304;2023-04-15T03:45:14;13.75;;;10.65;;
42006;SDS011;27696;42.704;23.304;2023-04-15T03:47:40;14.80;;;10.23;;
42006;SDS011;27696;42.704;23.304;2023-04-15T03:50:06;15.30;;;11.13;;
42006;SDS011;27696;42.704;23.304;2023-04-15T03:52:32;13.68;;;10.85;;
42006;SDS011;27696;42.704;23.304;2023-04-15T03:54:57;15.15;;;10.32;;
42006;SDS011;27696;42.704;23.304;2023-04-15T03:57:23;15.77;;;10.63;;
42006;SDS011;27696;42.704;23.304;2023-04-15T03:59:48;15.02;;;10.75;;
42006;SDS011;27696;42.704;23.304;2023-04-15T04:02:13;14.43;;;10.55;;
42006;SDS011;27696;42.704;23.304;2023-04-15T04:04:39;15.60;;;10.65;;
42006;SDS011;27696;42.704;23.304;2023-04-15T04:07:05;15.07;;;10.00;;
42006;SDS011;27696;42.704;23.304;2023-04-15T04:09:30;13.05;;;10.32;;
42006;SDS011;27696;42.704;23.304;2023-04-15T04:11:56;16.00;;;10.93;;
42006;SDS011;27696;42.704;23.304;2023-04-15T04:14:21;12.85;;;10.35;;
42006;SDS011;27696;42.704;23.304;2023-04-15T04:16:53;16.05;;;10.75;;
42006;SDS011;27696;42.704;23.304;2023-04-15T04:19:18;15.20;;;10.05;;
42006;SDS011;27696;42.704;23.304;2023-04-15T04:21:44;15.23;;;9.55;;
42006;SDS011;27696;42.704;23.304;2023-04-15T04:24:10;15.38;;;10.02;;
42006;SDS011;27696;42.704;23.304;2023-04-15T04:26:36;13.68;;;9.18;;
42006;SDS011;27696;42.704;23.304;2023-04-15T04:29:01;13.27;;;8.77;;
42006;SDS011;27696;42.704;23.304;2023-04-15T04:31:27;12.43;;;9.15;;
42006;SDS011;27696;42.704;23.304;2023-04-15T04:33:52;14.20;;;9.45;;
42006;SDS011;27696;42.704;23.304;2023-04-15T04:36:18;14.32;;;9.60;;
42006;SDS011;27696;42.704;23.304;2023-04-15T04:38:43;12.52;;;9.10;;
42006;SDS011;27696;42.704;23.304;2023-04-15T04:41:08;12.07;;;8.27;;
42006;SDS011;27696;42.704;23.304;2023-04-15T04:43:34;11.20;;;9.20;;
42006;SDS011;27696;42.704;23.304;2023-04-15T04:45:59;14.10;;;9.07;;
42006;SDS011;27696;42.704;23.304;2023-04-15T04:48:25;13.98;;;9.43;;
42006;SDS011;27696;42.704;23.304;2023-04-15T04:50:51;14.80;;;8.57;;
42006;SDS011;27696;42.704;23.304;2023-04-15T04:53:16;14.23;;;9.18;;
42006;SDS011;27696;42.704;23.304;2023-04-15T04:55:42;15.40;;;8.98;;
42006;SDS011;27696;42.704;23.304;2023-04-15T04:58:07;14.07;;;8.15;;
42006;SDS011;27696;42.704;23.304;2023-04-15T05:00:33;11.55;;;8.15;;
42006;SDS011;27696;42.704;23.304;2023-04-15T05:02:58;12.38;;;8.73;;
42006;SDS011;27696;42.704;23.304;2023-04-15T05:05:24;11.95;;;8.63;;
42006;SDS011;27696;42.704;23.304;2023-04-15T05:07:50;13.48;;;8.68;;
42006;SDS011;27696;42.704;23.304;2023-04-15T05:10:15;15.45;;;8.88;;
42006;SDS011;27696;42.704;23.304;2023-04-15T05:12:42;14.35;;;9.25;;
42006;SDS011;27696;42.704;23.304;2023-04-15T05:15:07;14.23;;;8.40;;
42006;SDS011;27696;42.704;23.304;2023-04-15T05:17:33;14.98;;;9.35;;
42006;SDS011;27696;42.704;23.304;2023-04-15T05:19:59;12.73;;;8.45;;
42006;SDS011;27696;42.704;23.304;2023-04-15T05:22:25;16.00;;;9.73;;
42006;SDS011;27696;42.704;23.304;2023-04-15T05:24:51;13.65;;;9.82;;
42006;SDS011;27696;42.704;23.304;2023-04-15T05:27:16;16.02;;;9.30;;
42006;SDS011;27696;42.704;23.304;2023-04-15T05:29:43;14.40;;;9.30;;
42006;SDS011;27696;42.704;23.304;2023-04-15T05:32:08;11.25;;;8.68;;
42006;SDS011;27696;42.704;23.304;2023-04-15T05:34:34;12.48;;;10.35;;
42006;SDS011;27696;42.704;23.304;2023-04-15T05:37:00;14.35;;;9.63;;
42006;SDS011;27696;42.704;23.304;2023-04-15T05:39:26;12.68;;;8.48;;
42006;SDS011;27696;42.704;23.304;2023-04-15T05:41:51;13.65;;;9.40;;
42006;SDS011;27696;42.704;23.304;2023-04-15T05:44:17;16.45;;;8.30;;
42006;SDS011;27696;42.704;23.304;2023-04-15T05:46:42;12.98;;;9.00;;
42006;SDS011;27696;42.704;23.304;2023-04-15T05:49:08;14.55;;;8.77;;
42006;SDS011;27696;42.704;23.304;2023-04-15T05:51:33;14.48;;;9.07;;
42006;SDS011;27696;42.704;23.304;2023-04-15T05:53:59;14.48;;;9.70;;
42006;SDS011;27696;42.704;23.304;2023-04-15T05:56:24;13.55;;;9.73;;
42006;SDS011;27696;42.704;23.304;2023-04-15T05:58:51;14.30;;;10.10;;
42006;SDS011;27696;42.704;23.304;2023-04-15T06:01:16;13.60;;;9.35;;
42006;SDS011;27696;42.704;23.304;2023-04-15T06:03:41;11.75;;;9.38;;
42006;SDS011;27696;42.704;23.304;2023-04-15T06:06:07;13.88;;;9.32;;
42006;SDS011;27696;42.704;23.304;2023-04-15T06:08:33;15.15;;;10.10;;
42006;SDS011;27696;42.704;23.304;2023-04-15T06:10:58;19.15;;;9.60;;
42006;SDS011;27696;42.704;23.304;2023-04-15T06:13:23;17.58;;;10.57;;
42006;SDS011;27696;42.704;23.304;2023-04-15T06:15:49;15.88;;;11.18;;
42006;SDS011;27696;42.704;23.304;2023-04-15T06:18:14;11.68;;;9.05;;
42006;SDS011;27696;42.704;23.304;2023-04-15T06:20:40;18.10;;;9.70;;
42006;SDS011;27696;42.704;23.304;2023-04-15T06:23:05;15.68;;;9.45;;
42006;SDS011;27696;42.704;23.304;2023-04-15T06:25:31;18.48;;;10.57;;
42006;SDS011;27696;42.704;23.304;2023-04-15T06:27:56;13.00;;;9.88;;
42006;SDS011;27696;42.704;23.304;2023-04-15T06:30:22;16.38;;;10.38;;
42006;SDS011;27696;42.704;23.304;2023-04-15T06:32:47;15.63;;;10.13;;
42006;SDS011;27696;42.704;23.304;2023-04-15T06:35:12;14.85;;;9.73;;
42006;SDS011;27696;42.704;23.304;2023-04-15T06:37:38;16.40;;;10.50;;
42006;SDS011;27696;42.704;23.304;2023-04-15T06:40:04;17.40;;;9.57;;
42006;SDS011;27696;42.704;23.304;2023-04-15T06:42:29;18.67;;;10.85;;
42006;SDS011;27696;42.704;23.304;2023-04-15T06:44:55;13.50;;;9.98;;
42006;SDS011;27696;42.704;23.304;2023-04-15T06:47:21;13.75;;;9.63;;
42006;SDS011;27696;42.704;23.304;2023-04-15T06:49:46;13.45;;;9.05;;
42006;SDS011;27696;42.704;23.304;2023-04-15T06:52:11;17.60;;;9.18;;
42006;SDS011;27696;42.704;23.304;2023-04-15T06:54:37;10.75;;;8.25;;
42006;SDS011;27696;42.704;23.304;2023-04-15T06:57:03;14.02;;;8.93;;
42006;SDS011;27696;42.704;23.304;2023-04-15T06:59:28;14.57;;;8.70;;
42006;SDS011;27696;42.704;23.304;2023-04-15T07:01:54;13.07;;;8.55;;
42006;SDS011;27696;42.704;23.304;2023-04-15T07:04:19;11.77;;;8.52;;
42006;SDS011;27696;42.704;23.304;2023-04-15T07:06:45;14.20;;;7.45;;
42006;SDS011;27696;42.704;23.304;2023-04-15T07:09:10;11.43;;;6.15;;
42006;SDS011;27696;42.704;23.304;2023-04-15T07:11:35;13.65;;;5.72;;
42006;SDS011;27696;42.704;23.304;2023-04-15T07:14:01;9.35;;;6.13;;
42006;SDS011;27696;42.704;23.304;2023-04-15T07:16:26;8.70;;;5.90;;
42006;SDS011;27696;42.704;23.304;2023-04-15T07:18:52;12.57;;;5.95;;
42006;SDS011;27696;42.704;23.304;2023-04-15T07:21:18;11.82;;;6.65;;
42006;SDS011;27696;42.704;23.304;2023-04-15T07:23:43;11.65;;;6.40;;
42006;SDS011;27696;42.704;23.304;2023-04-15T07:26:09;15.30;;;6.47;;
42006;SDS011;27696;42.704;23.304;2023-04-15T07:28:35;14.32;;;7.10;;
42006;SDS011;27696;42.704;23.304;2023-04-15T07:31:00;10.73;;;6.88;;
42006;SDS011;27696;42.704;23.304;2023-04-15T07:33:26;14.32;;;7.28;;
42006;SDS011;27696;42.704;23.304;2023-04-15T07:35:51;14.70;;;7.43;;
42006;SDS011;27696;42.704;23.304;2023-04-15T07:38:17;12.05;;;6.15;;
42006;SDS011;27696;42.704;23.304;2023-04-15T07:40:42;14.38;;;5.60;;
42006;SDS011;27696;42.704;23.304;2023-04-15T07:43:08;7.47;;;4.78;;
42006;SDS011;27696;42.704;23.304;2023-04-15T07:45:34;7.35;;;5.05;;
42006;SDS011;27696;42.704;23.304;2023-04-15T07:47:59;8.73;;;4.70;;
42006;SDS011;27696;42.704;23.304;2023-04-15T07:50:25;7.97;;;4.35;;
42006;SDS011;27696;42.704;23.304;2023-04-15T07:52:51;7.20;;;3.83;;
42006;SDS011;27696;42.704;23.304;2023-04-15T07:55:17;8.27;;;3.97;;
42006;SDS011;27696;42.704;23.304;2023-04-15T07:57:45;8.50;;;4.18;;
42006;SDS011;27696;42.704;23.304;2023-04-15T08:00:11;6.18;;;3.17;;
42006;SDS011;27696;42.704;23.304;2023-04-15T08:02:37;10.65;;;4.00;;
42006;SDS011;27696;42.704;23.304;2023-04-15T08:05:03;5.10;;;3.45;;
42006;SDS011;27696;42.704;23.304;2023-04-15T08:07:29;12.00;;;7.75;;
42006;SDS011;27696;42.704;23.304;2023-04-15T08:09:55;11.77;;;4.05;;
42006;SDS011;27696;42.704;23.304;2023-04-15T08:12:20;7.30;;;3.40;;
42006;SDS011;27696;42.704;23.304;2023-04-15T08:14:46;7.95;;;3.10;;
42006;SDS011;27696;42.704;23.304;2023-04-15T08:17:11;9.10;;;2.92;;
42006;SDS011;27696;42.704;23.304;2023-04-15T08:19:37;5.47;;;3.05;;
42006;SDS011;27696;42.704;23.304;2023-04-15T08:22:02;5.53;;;2.75;;
42006;SDS011;27696;42.704;23.304;2023-04-15T08:24:28;7.72;;;2.70;;
42006;SDS011;27696;42.704;23.304;2023-04-15T08:26:54;5.18;;;1.92;;
42006;SDS011;27696;42.704;23.304;2023-04-15T08:29:21;11.52;;;8.50;;
42006;SDS011;27696;42.704;23.304;2023-04-15T08:31:47;3.47;;;1.92;;
42006;SDS011;27696;42.704;23.304;2023-04-15T08:34:12;4.78;;;1.55;;
42006;SDS011;27696;42.704;23.304;2023-04-15T08:36:39;8.85;;;1.50;;
42006;SDS011;27696;42.704;23.304;2023-04-15T08:39:04;3.33;;;1.70;;
42006;SDS011;27696;42.704;23.304;2023-04-15T08:41:35;3.10;;;1.73;;
42006;SDS011;27696;42.704;23.304;2023-04-15T08:44:04;2.75;;;1.70;;
42006;SDS011;27696;42.704;23.304;2023-04-15T08:46:30;4.53;;;2.13;;
42006;SDS011;27696;42.704;23.304;2023-04-15T08:48:58;5.40;;;2.35;;
42006;SDS011;27696;42.704;23.304;2023-04-15T08:51:24;4.55;;;1.75;;
42006;SDS011;27696;42.704;23.304;2023-04-15T08:53:49;4.85;;;1.90;;
42006;SDS011;27696;42.704;23.304;2023-04-15T08:56:15;3.55;;;1.67;;
42006;SDS011;27696;42.704;23.304;2023-04-15T08:58:42;7.57;;;1.83;;
42006;SDS011;27696;42.704;23.304;2023-04-15T09:01:09;4.57;;;1.70;;
42006;SDS011;27696;42.704;23.304;2023-04-15T09:03:36;9.25;;;2.80;;
42006;SDS011;27696;42.704;23.304;2023-04-15T09:06:03;6.45;;;2.00;;
42006;SDS011;27696;42.704;23.304;2023-04-15T09:08:29;7.43;;;2.60;;
42006;SDS011;27696;42.704;23.304;2023-04-15T09:10:55;6.70;;;1.80;;
42006;SDS011;27696;42.704;23.304;2023-04-15T09:13:20;6.43;;;2.30;;
42006;SDS011;27696;42.704;23.304;2023-04-15T09:15:46;6.28;;;2.00;;
42006;SDS011;27696;42.704;23.304;2023-04-15T09:18:12;3.45;;;2.10;;
42006;SDS011;27696;42.704;23.304;2023-04-15T09:20:39;5.60;;;2.38;;
42006;SDS011;27696;42.704;23.304;2023-04-15T09:23:12;3.78;;;2.65;;
42006;SDS011;27696;42.704;23.304;2023-04-15T09:25:39;6.78;;;2.75;;
42006;SDS011;27696;42.704;23.304;2023-04-15T09:28:06;8.85;;;2.15;;
42006;SDS011;27696;42.704;23.304;2023-04-15T09:30:32;6.47;;;3.17;;
42006;SDS011;27696;42.704;23.304;2023-04-15T09:33:00;6.25;;;2.67;;
42006;SDS011;27696;42.704;23.304;2023-04-15T09:35:26;6.50;;;3.50;;
42006;SDS011;27696;42.704;23.304;2023-04-15T09:37:53;7.45;;;2.30;;
42006;SDS011;27696;42.704;23.304;2023-04-15T09:40:35;4.40;;;2.50;;
42006;SDS011;27696;42.704;23.304;2023-04-15T09:43:02;3.97;;;1.77;;
42006;SDS011;27696;42.704;23.304;2023-04-15T09:45:29;6.38;;;2.50;;
42006;SDS011;27696;42.704;23.304;2023-04-15T09:47:58;9.70;;;2.20;;
42006;SDS011;27696;42.704;23.304;2023-04-15T09:50:28;7.28;;;2.10;;
42006;SDS011;27696;42.704;23.304;2023-04-15T09:52:53;6.50;;;2.30;;
42006;SDS011;27696;42.704;23.304;2023-04-15T09:55:19;7.47;;;2.58;;
42006;SDS011;27696;42.704;23.304;2023-04-15T09:57:45;6.47;;;2.35;;
42006;SDS011;27696;42.704;23.304;2023-04-15T10:00:13;4.00;;;2.60;;
42006;SDS011;27696;42.704;23.304;2023-04-15T10:02:40;6.90;;;2.80;;
42006;SDS011;27696;42.704;23.304;2023-04-15T10:05:12;4.40;;;2.35;;
42006;SDS011;27696;42.704;23.304;2023-04-15T10:07:39;4.78;;;2.03;;
42006;SDS011;27696;42.704;23.304;2023-04-15T10:10:07;7.78;;;2.97;;
42006;SDS011;27696;42.704;23.304;2023-04-15T10:12:34;4.40;;;2.00;;
42006;SDS011;27696;42.704;23.304;2023-04-15T10:15:04;4.55;;;1.75;;
42006;SDS011;27696;42.704;23.304;2023-04-15T10:17:31;4.05;;;1.42;;
42006;SDS011;27696;42.704;23.304;2023-04-15T10:20:03;4.18;;;1.92;;
42006;SDS011;27696;42.704;23.304;2023-04-15T10:22:29;2.33;;;1.38;;
42006;SDS011;27696;42.704;23.304;2023-04-15T10:24:55;2.85;;;1.65;;
42006;SDS011;27696;42.704;23.304;2023-04-15T10:27:21;5.07;;;1.10;;
42006;SDS011;27696;42.704;23.304;2023-04-15T10:29:48;3.97;;;1.30;;
42006;SDS011;27696;42.704;23.304;2023-04-15T10:32:14;5.55;;;2.47;;
42006;SDS011;27696;42.704;23.304;2023-04-15T10:34:41;4.97;;;1.58;;
42006;SDS011;27696;42.704;23.304;2023-04-15T10:37:08;4.28;;;1.30;;
42006;SDS011;27696;42.704;23.304;2023-04-15T10:42:08;3.25;;;1.25;;
42006;SDS011;27696;42.704;23.304;2023-04-15T10:44:38;5.33;;;1.60;;
42006;SDS011;27696;42.704;23.304;2023-04-15T10:47:11;5.75;;;1.55;;
42006;SDS011;27696;42.704;23.304;2023-04-15T10:49:42;3.78;;;1.00;;
42006;SDS011;27696;42.704;23.304;2023-04-15T10:52:12;4.85;;;1.50;;
42006;SDS011;27696;42.704;23.304;2023-04-15T10:54:38;3.47;;;1.35;;
42006;SDS011;27696;42.704;23.304;2023-04-15T10:59:35;3.22;;;1.40;;
42006;SDS011;27696;42.704;23.304;2023-04-15T11:07:37;1.85;;;1.23;;
42006;SDS011;27696;42.704;23.304;2023-04-15T11:12:50;2.42;;;1.33;;
42006;SDS011;27696;42.704;23.304;2023-04-15T11:15:29;4.05;;;1.45;;
42006;SDS011;27696;42.704;23.304;2023-04-15T11:23:12;2.95;;;1.55;;
42006;SDS011;27696;42.704;23.304;2023-04-15T11:25:38;3.42;;;1.42;;
42006;SDS011;27696;42.704;23.304;2023-04-15T11:28:04;3.58;;;1.25;;
42006;SDS011;27696;42.704;23.304;2023-04-15T11:30:30;5.25;;;1.52;;
42006;SDS011;27696;42.704;23.304;2023-04-15T11:32:58;6.63;;;1.95;;
42006;SDS011;27696;42.704;23.304;2023-04-15T11:35:25;4.78;;;1.40;;
42006;SDS011;27696;42.704;23.304;2023-04-15T11:37:51;3.53;;;1.08;;
42006;SDS011;27696;42.704;23.304;2023-04-15T11:40:21;4.40;;;1.02;;
42006;SDS011;27696;42.704;23.304;2023-04-15T11:45:32;3.80;;;1.30;;
42006;SDS011;27696;42.704;23.304;2023-04-15T11:48:05;4.30;;;1.10;;
42006;SDS011;27696;42.704;23.304;2023-04-15T11:50:31;2.83;;;1.13;;
42006;SDS011;27696;42.704;23.304;2023-04-15T11:52:59;3.30;;;1.27;;
42006;SDS011;27696;42.704;23.304;2023-04-15T11:55:26;2.50;;;1.02;;
42006;SDS011;27696;42.704;23.304;2023-04-15T12:00:56;4.10;;;1.30;;
42006;SDS011;27696;42.704;23.304;2023-04-15T12:03:26;5.20;;;1.17;;
42006;SDS011;27696;42.704;23.304;2023-04-15T12:08:56;3.90;;;1.13;;
42006;SDS011;27696;42.704;23.304;2023-04-15T12:13:54;2.10;;;0.80;;
42006;SDS011;27696;42.704;23.304;2023-04-15T12:16:21;4.30;;;0.80;;
42006;SDS011;27696;42.704;23.304;2023-04-15T12:18:51;1.67;;;0.80;;
42006;SDS011;27696;42.704;23.304;2023-04-15T12:21:20;2.38;;;1.00;;
42006;SDS011;27696;42.704;23.304;2023-04-15T12:23:49;4.53;;;1.10;;
42006;SDS011;27696;42.704;23.304;2023-04-15T12:26:24;3.78;;;1.08;;
42006;SDS011;27696;42.704;23.304;2023-04-15T12:29:03;3.45;;;1.00;;
42006;SDS011;27696;42.704;23.304;2023-04-15T12:31:32;4.78;;;1.02;;
42006;SDS011;27696;42.704;23.304;2023-04-15T12:33:58;2.47;;;0.85;;
42006;SDS011;27696;42.704;23.304;2023-04-15T12:36:25;3.72;;;1.40;;
42006;SDS011;27696;42.704;23.304;2023-04-15T12:38:51;1.77;;;0.93;;
42006;SDS011;27696;42.704;23.304;2023-04-15T12:41:17;2.47;;;0.95;;
42006;SDS011;27696;42.704;23.304;2023-04-15T12:43:44;2.90;;;1.10;;
42006;SDS011;27696;42.704;23.304;2023-04-15T12:46:10;3.35;;;0.85;;
42006;SDS011;27696;42.704;23.304;2023-04-15T12:48:36;3.42;;;0.80;;
42006;SDS011;27696;42.704;23.304;2023-04-15T12:51:01;2.60;;;1.10;;
42006;SDS011;27696;42.704;23.304;2023-04-15T12:53:27;3.15;;;1.17;;
42006;SDS011;27696;42.704;23.304;2023-04-15T12:55:52;3.17;;;0.90;;
42006;SDS011;27696;42.704;23.304;2023-04-15T12:58:18;4.82;;;1.05;;
42006;SDS011;27696;42.704;23.304;2023-04-15T13:00:43;1.95;;;0.88;;
42006;SDS011;27696;42.704;23.304;2023-04-15T13:03:09;3.15;;;1.00;;
42006;SDS011;27696;42.704;23.304;2023-04-15T13:05:34;4.47;;;1.00;;
42006;SDS011;27696;42.704;23.304;2023-04-15T13:08:01;2.72;;;0.77;;
42006;SDS011;27696;42.704;23.304;2023-04-15T13:10:29;2.70;;;1.02;;
42006;SDS011;27696;42.704;23.304;2023-04-15T13:12:55;2.97;;;0.80;;
42006;SDS011;27696;42.704;23.304;2023-04-15T13:15:21;1.67;;;0.95;;
42006;SDS011;27696;42.704;23.304;2023-04-15T13:17:47;1.80;;;0.77;;
42006;SDS011;27696;42.704;23.304;2023-04-15T13:20:12;3.72;;;1.00;;
42006;SDS011;27696;42.704;23.304;2023-04-15T13:22:38;1.63;;;0.90;;
42006;SDS011;27696;42.704;23.304;2023-04-15T13:25:03;3.40;;;0.93;;
42006;SDS011;27696;42.704;23.304;2023-04-15T13:27:29;7.72;;;0.90;;
42006;SDS011;27696;42.704;23.304;2023-04-15T13:29:55;2.25;;;0.88;;
42006;SDS011;27696;42.704;23.304;2023-04-15T13:32:21;2.60;;;1.10;;
42006;SDS011;27696;42.704;23.304;2023-04-15T13:34:46;2.15;;;0.85;;
42006;SDS011;27696;42.704;23.304;2023-04-15T13:37:12;2.55;;;0.90;;
42006;SDS011;27696;42.704;23.304;2023-04-15T13:39:37;1.90;;;0.90;;
42006;SDS011;27696;42.704;23.304;2023-04-15T13:42:03;2.60;;;0.98;;
42006;SDS011;27696;42.704;23.304;2023-04-15T13:44:29;3.85;;;1.00;;
42006;SDS011;27696;42.704;23.304;2023-04-15T13:46:54;5.75;;;1.13;;
42006;SDS011;27696;42.704;23.304;2023-04-15T13:49:20;2.60;;;1.33;;
42006;SDS011;27696;42.704;23.304;2023-04-15T13:51:45;2.75;;;1.00;;
42006;SDS011;27696;42.704;23.304;2023-04-15T13:54:11;3.97;;;0.82;;
42006;SDS011;27696;42.704;23.304;2023-04-15T13:56:37;2.25;;;0.82;;
42006;SDS011;27696;42.704;23.304;2023-04-15T13:59:02;2.63;;;0.95;;
42006;SDS011;27696;42.704;23.304;2023-04-15T14:01:28;3.97;;;0.90;;
42006;SDS011;27696;42.704;23.304;2023-04-15T14:03:54;1.50;;;0.77;;
42006;SDS011;27696;42.704;23.304;2023-04-15T14:06:19;1.02;;;0.60;;
42006;SDS011;27696;42.704;23.304;2023-04-15T14:08:45;3.58;;;1.00;;
42006;SDS011;27696;42.704;23.304;2023-04-15T14:11:11;3.28;;;1.10;;
42006;SDS011;27696;42.704;23.304;2023-04-15T14:13:36;2.35;;;0.77;;
42006;SDS011;27696;42.704;23.304;2023-04-15T14:16:01;2.05;;;0.85;;
42006;SDS011;27696;42.704;23.304;2023-04-15T14:18:27;3.58;;;0.73;;
42006;SDS011;27696;42.704;23.304;2023-04-15T14:20:53;3.10;;;0.80;;
42006;SDS011;27696;42.704;23.304;2023-04-15T14:23:19;4.40;;;0.98;;
42006;SDS011;27696;42.704;23.304;2023-04-15T14:25:44;1.17;;;0.90;;
42006;SDS011;27696;42.704;23.304;2023-04-15T14:28:10;2.47;;;0.90;;
42006;SDS011;27696;42.704;23.304;2023-04-15T14:30:35;3.97;;;1.20;;
42006;SDS011;27696;42.704;23.304;2023-04-15T14:33:01;4.60;;;0.93;;
42006;SDS011;27696;42.704;23.304;2023-04-15T14:35:26;3.05;;;0.90;;
42006;SDS011;27696;42.704;23.304;2023-04-15T14:37:52;2.33;;;0.80;;
42006;SDS011;27696;42.704;23.304;2023-04-15T14:40:18;4.20;;;0.90;;
42006;SDS011;27696;42.704;23.304;2023-04-15T14:42:43;2.58;;;1.50;;
42006;SDS011;27696;42.704;23.304;2023-04-15T14:45:09;5.65;;;1.20;;
42006;SDS011;27696;42.704;23.304;2023-04-15T14:47:35;2.30;;;1.00;;
42006;SDS011;27696;42.704;23.304;2023-04-15T14:50:00;1.80;;;0.80;;